Time;durP1;ratioP1;P1;durP2;ratioP2;P2;SDS_P1;SDS_P2;PMS_P1;PMS_P2;Temp;Humidity;BMP_temperature;BMP_pressure;BME280_temperature;BME280_humidity;BME280_pressure;Samples;Min_cycle;Max_cycle;Signal;HPM_P1;HPM_P2
2022/01/01 00:00:09;;;;;;;11.20;7.85;;;12.30;99.90;;;;;;5012421;28;20182;-79
2022/01/01 00:02:35;;;;;;;10.52;7.00;;;12.30;99.90;;;;;;5012217;28;20226;-78
2022/01/01 00:05:03;;;;;;;11.68;7.75;;;12.30;99.90;;;;;;5027124;28;20240;-78
2022/01/01 00:07:28;;;;;;;17.33;10.60;;;12.40;99.90;;;;;;5012440;28;20255;-78
2022/01/01 00:09:54;;;;;;;11.68;9.18;;;12.30;99.90;;;;;;5010257;28;20532;-79
2022/01/01 00:12:19;;;;;;;12.07;8.38;;;12.30;99.90;;;;;;5013183;28;20180;-79
2022/01/01 00:14:45;;;;;;;12.15;7.65;;;12.30;99.90;;;;;;5013544;28;20652;-79
2022/01/01 00:17:11;;;;;;;11.20;7.60;;;12.30;99.90;;;;;;5015043;28;20190;-80
2022/01/01 00:19:38;;;;;;;12.70;7.78;;;12.20;99.90;;;;;;5013912;28;20182;-78
2022/01/01 00:22:04;;;;;;;13.85;8.52;;;12.20;99.90;;;;;;5013450;28;20198;-79
2022/01/01 00:24:30;;;;;;;11.18;8.27;;;12.20;99.90;;;;;;5015917;28;20203;-79
2022/01/01 00:26:55;;;;;;;11.10;7.18;;;12.30;99.90;;;;;;5013284;28;20198;-79
2022/01/01 00:29:21;;;;;;;10.38;6.53;;;12.30;99.90;;;;;;5011877;28;20179;-78
2022/01/01 00:31:47;;;;;;;10.68;9.20;;;12.20;99.90;;;;;;5011646;28;20219;-79
2022/01/01 00:34:12;;;;;;;12.88;9.77;;;12.20;99.90;;;;;;5011612;28;20207;-79
2022/01/01 00:36:38;;;;;;;12.68;8.55;;;12.20;99.90;;;;;;5010625;28;20290;-78
2022/01/01 00:39:05;;;;;;;10.32;7.85;;;12.30;99.90;;;;;;5010209;28;20179;-78
2022/01/01 00:41:31;;;;;;;7.60;6.43;;;12.20;99.90;;;;;;5024766;28;20179;-79
2022/01/01 00:43:56;;;;;;;11.68;7.35;;;12.30;99.90;;;;;;5008468;28;20242;-80
2022/01/01 00:46:22;;;;;;;9.73;6.68;;;12.20;99.90;;;;;;5008030;28;20219;-79
2022/01/01 00:48:48;;;;;;;10.52;6.80;;;12.20;99.90;;;;;;5017133;28;20246;-79
2022/01/01 00:51:14;;;;;;;9.13;6.30;;;12.20;99.90;;;;;;5018648;28;20219;-79
2022/01/01 00:53:39;;;;;;;9.30;6.07;;;12.20;99.90;;;;;;5018056;28;20204;-79
2022/01/01 00:56:05;;;;;;;9.70;6.78;;;12.20;99.90;;;;;;5017754;28;20206;-78
2022/01/01 00:58:30;;;;;;;8.07;5.93;;;12.30;99.90;;;;;;5015922;28;20206;-80
2022/01/01 01:00:56;;;;;;;13.82;6.22;;;12.20;99.90;;;;;;5015580;28;20175;-80
2022/01/01 01:03:21;;;;;;;8.40;5.78;;;12.20;99.90;;;;;;5015552;28;20262;-80
2022/01/01 01:05:47;;;;;;;9.55;6.43;;;12.20;99.90;;;;;;5016159;28;20299;-79
2022/01/01 01:08:15;;;;;;;7.80;5.68;;;12.20;99.90;;;;;;5016129;28;20179;-78
2022/01/01 01:10:44;;;;;;;9.05;6.13;;;12.20;99.90;;;;;;5016940;28;20187;-80
2022/01/01 01:13:09;;;;;;;11.75;6.80;;;12.20;99.90;;;;;;5017038;28;20259;-79
2022/01/01 01:15:36;;;;;;;8.82;6.00;;;12.20;99.90;;;;;;5015843;28;20222;-79
2022/01/01 01:18:04;;;;;;;9.27;5.95;;;12.30;99.90;;;;;;5017774;28;20176;-81
2022/01/01 01:20:30;;;;;;;9.93;6.13;;;12.20;99.90;;;;;;5024976;28;20172;-80
2022/01/01 01:22:56;;;;;;;9.32;5.90;;;12.20;99.90;;;;;;5018659;28;20178;-79
2022/01/01 01:25:23;;;;;;;7.93;5.88;;;12.30;99.90;;;;;;4981811;28;1083113;-79
2022/01/01 01:27:50;;;;;;;9.07;6.07;;;12.30;99.90;;;;;;5017142;28;20198;-79
2022/01/01 01:30:16;;;;;;;8.68;5.93;;;12.30;99.90;;;;;;5016519;28;20187;-79
2022/01/01 01:32:43;;;;;;;8.52;6.13;;;12.30;99.90;;;;;;5017555;28;20238;-79
2022/01/01 01:35:10;;;;;;;11.68;6.93;;;12.20;99.90;;;;;;5015556;28;20215;-80
2022/01/01 01:37:36;;;;;;;12.98;6.75;;;12.20;99.90;;;;;;5017149;28;20226;-79
2022/01/01 01:40:04;;;;;;;11.73;7.13;;;12.30;99.90;;;;;;5015370;28;20195;-80
2022/01/01 01:42:31;;;;;;;11.63;6.65;;;12.30;99.90;;;;;;5026322;28;20542;-80
2022/01/01 01:44:58;;;;;;;8.65;6.72;;;12.20;99.90;;;;;;5014094;28;20751;-80
2022/01/01 01:47:34;;;;;;;11.32;7.00;;;12.30;99.90;;;;;;5013058;28;20206;-79
2022/01/01 01:50:06;;;;;;;12.70;7.10;;;12.30;99.90;;;;;;5012363;28;20229;-78
2022/01/01 01:52:34;;;;;;;10.10;6.25;;;12.30;99.90;;;;;;5012871;28;20241;-79
2022/01/01 01:55:03;;;;;;;12.55;7.72;;;12.30;99.90;;;;;;5013356;28;20215;-78
2022/01/01 01:57:29;;;;;;;9.93;6.80;;;12.30;99.90;;;;;;5029196;28;20179;-79
2022/01/01 01:59:55;;;;;;;13.48;8.20;;;12.30;99.90;;;;;;5013201;28;20286;-80
2022/01/01 02:02:21;;;;;;;13.25;7.90;;;12.30;99.90;;;;;;5009014;28;20176;-79
2022/01/01 02:04:47;;;;;;;10.88;7.18;;;12.30;99.90;;;;;;5010920;28;20782;-79
2022/01/01 02:07:13;;;;;;;12.40;7.55;;;12.20;99.90;;;;;;5008291;28;20183;-80
2022/01/01 02:09:39;;;;;;;9.75;7.03;;;12.20;99.90;;;;;;5008314;28;20215;-78
2022/01/01 02:12:07;;;;;;;10.50;7.30;;;12.10;99.90;;;;;;5007952;28;20194;-79
2022/01/01 02:17:25;;;;;;;11.73;7.82;;;12.20;99.90;;;;;;5009875;28;20188;-78
2022/01/01 02:19:59;;;;;;;11.82;7.45;;;12.10;99.90;;;;;;5009688;28;20195;-78
2022/01/01 02:22:26;;;;;;;13.00;8.00;;;12.10;99.90;;;;;;5009429;28;20203;-78
2022/01/01 02:24:53;;;;;;;12.82;8.30;;;12.10;99.90;;;;;;5007315;28;20231;-79
2022/01/01 02:27:19;;;;;;;11.73;8.15;;;12.20;99.90;;;;;;5007875;28;20184;-78
2022/01/01 02:29:45;;;;;;;11.65;8.52;;;12.10;99.90;;;;;;5010022;28;20192;-78
2022/01/01 02:32:13;;;;;;;12.20;8.27;;;12.20;99.90;;;;;;5008392;28;20256;-78
2022/01/01 02:34:40;;;;;;;11.60;8.05;;;12.20;99.90;;;;;;5006010;28;20218;-78
2022/01/01 02:37:06;;;;;;;11.88;8.57;;;12.20;99.90;;;;;;5007048;28;20218;-78
2022/01/01 02:39:31;;;;;;;12.32;8.98;;;12.10;99.90;;;;;;5007946;28;20199;-78
2022/01/01 02:41:57;;;;;;;13.63;9.63;;;12.10;99.90;;;;;;5007923;28;20230;-78
2022/01/01 02:44:24;;;;;;;13.00;8.75;;;12.20;99.90;;;;;;5008262;28;20183;-78
2022/01/01 02:46:54;;;;;;;17.40;9.63;;;12.10;99.90;;;;;;5009661;28;20198;-78
2022/01/01 02:49:19;;;;;;;14.43;9.25;;;12.10;99.90;;;;;;5024704;28;20210;-78
2022/01/01 02:51:45;;;;;;;13.52;9.50;;;12.10;99.90;;;;;;5010226;28;20203;-79
2022/01/01 02:54:10;;;;;;;12.75;9.43;;;12.20;99.90;;;;;;5009180;28;20207;-78
2022/01/01 02:56:37;;;;;;;14.68;9.63;;;12.10;99.90;;;;;;5009979;28;20703;-78
2022/01/01 02:59:03;;;;;;;14.70;8.98;;;12.20;99.90;;;;;;5008036;28;20216;-78
2022/01/01 03:01:29;;;;;;;13.20;9.38;;;12.20;99.90;;;;;;5007455;28;20188;-78
2022/01/01 03:03:55;;;;;;;12.95;9.38;;;12.20;99.90;;;;;;5009112;28;20202;-78
2022/01/01 03:06:20;;;;;;;14.35;8.88;;;12.20;99.90;;;;;;5007278;28;20930;-78
2022/01/01 03:08:51;;;;;;;14.20;9.23;;;12.20;99.90;;;;;;5008314;28;20265;-79
2022/01/01 03:11:18;;;;;;;15.18;9.55;;;12.20;99.90;;;;;;5008384;28;20274;-78
2022/01/01 03:13:44;;;;;;;13.55;9.00;;;12.20;99.90;;;;;;5007481;28;20748;-78
2022/01/01 03:16:10;;;;;;;12.40;9.50;;;12.20;99.90;;;;;;5007554;28;20211;-79
2022/01/01 03:18:36;;;;;;;13.80;8.98;;;12.20;99.90;;;;;;5009040;28;20180;-78
2022/01/01 03:21:02;;;;;;;13.90;9.23;;;12.20;99.90;;;;;;5007983;28;20192;-78
2022/01/01 03:23:28;;;;;;;10.38;8.10;;;12.20;99.90;;;;;;5007030;28;20179;-78
2022/01/01 03:25:53;;;;;;;12.02;8.55;;;12.10;99.90;;;;;;5007979;28;20227;-78
2022/01/01 03:28:19;;;;;;;17.40;9.02;;;12.10;99.90;;;;;;5008488;28;20215;-78
2022/01/01 03:30:44;;;;;;;10.38;7.45;;;12.10;99.90;;;;;;5006971;28;20242;-78
2022/01/01 03:33:10;;;;;;;12.80;8.60;;;12.10;99.90;;;;;;5008280;28;20245;-79
2022/01/01 03:35:36;;;;;;;11.45;7.72;;;12.20;99.90;;;;;;5008101;28;20220;-78
2022/01/01 03:38:02;;;;;;;10.95;8.00;;;12.20;99.90;;;;;;5007081;28;20176;-78
2022/01/01 03:40:27;;;;;;;15.75;8.55;;;12.10;99.90;;;;;;5007990;28;20179;-78
2022/01/01 03:42:53;;;;;;;10.43;7.60;;;12.10;99.90;;;;;;5007612;28;20660;-78
2022/01/01 03:45:18;;;;;;;11.95;7.30;;;12.10;99.90;;;;;;5007234;28;20211;-80
2022/01/01 03:47:44;;;;;;;15.15;8.13;;;12.00;99.90;;;;;;5007315;28;20972;-78
2022/01/01 03:50:10;;;;;;;12.80;8.20;;;12.00;99.90;;;;;;5008325;28;20665;-79
2022/01/01 03:52:40;;;;;;;15.05;8.98;;;12.00;99.90;;;;;;5007592;28;20214;-78
2022/01/01 03:55:06;;;;;;;8.75;7.10;;;12.00;99.90;;;;;;5006426;28;20697;-78
2022/01/01 03:57:32;;;;;;;12.50;7.45;;;12.00;99.90;;;;;;5008048;28;20211;-78
2022/01/01 03:59:57;;;;;;;14.18;8.15;;;12.00;99.90;;;;;;5007947;28;20175;-78
2022/01/01 04:02:23;;;;;;;12.80;7.55;;;12.10;99.90;;;;;;5006206;28;20237;-78
2022/01/01 04:04:48;;;;;;;13.68;7.93;;;12.10;99.90;;;;;;5006480;28;20676;-78
2022/01/01 04:07:14;;;;;;;12.35;7.55;;;12.10;99.90;;;;;;5007238;28;20195;-78
2022/01/01 04:09:40;;;;;;;13.35;8.02;;;12.10;99.90;;;;;;5007700;28;20303;-78
2022/01/01 04:12:06;;;;;;;10.70;8.02;;;12.10;99.90;;;;;;5007055;28;20337;-79
2022/01/01 04:14:31;;;;;;;12.60;8.18;;;12.10;99.90;;;;;;5006121;28;20215;-78
2022/01/01 04:16:58;;;;;;;13.20;8.95;;;12.10;99.90;;;;;;5006240;28;20179;-78
2022/01/01 04:19:32;;;;;;;12.15;7.80;;;12.00;99.90;;;;;;5005222;28;20183;-79
2022/01/01 04:21:58;;;;;;;12.63;7.30;;;12.10;99.90;;;;;;5006259;28;20641;-79
2022/01/01 04:24:23;;;;;;;13.52;7.95;;;12.00;99.90;;;;;;5006639;28;20199;-79
2022/01/01 04:26:49;;;;;;;10.88;7.45;;;12.00;99.90;;;;;;5009805;28;20648;-78
2022/01/01 04:29:15;;;;;;;14.48;7.03;;;12.00;99.90;;;;;;5010397;28;21239;-78
2022/01/01 04:31:41;;;;;;;11.30;7.68;;;12.10;99.90;;;;;;5009808;28;20183;-79
2022/01/01 04:34:07;;;;;;;12.25;7.38;;;12.10;99.90;;;;;;5010892;28;20849;-78
2022/01/01 04:36:33;;;;;;;11.23;7.47;;;12.10;99.90;;;;;;5012292;28;20176;-79
2022/01/01 04:38:58;;;;;;;10.43;7.25;;;12.10;99.90;;;;;;5011604;28;20673;-78
2022/01/01 04:41:24;;;;;;;9.98;6.70;;;12.10;99.90;;;;;;5012269;28;20207;-79
2022/01/01 04:43:49;;;;;;;13.48;7.13;;;12.10;99.90;;;;;;5011718;28;20238;-78
2022/01/01 04:46:15;;;;;;;14.55;7.05;;;12.10;99.90;;;;;;5009842;28;20238;-78
2022/01/01 04:48:41;;;;;;;9.73;6.72;;;12.10;99.90;;;;;;5010327;28;20183;-78
2022/01/01 04:51:08;;;;;;;13.23;7.60;;;12.10;99.90;;;;;;5012238;28;20214;-79
2022/01/01 04:53:35;;;;;;;13.38;7.97;;;12.10;99.90;;;;;;5011482;28;20184;-78
2022/01/01 04:56:04;;;;;;;12.70;7.72;;;12.00;99.90;;;;;;5025937;28;20295;-80
2022/01/01 04:58:30;;;;;;;9.13;7.05;;;12.10;99.90;;;;;;5012567;28;20287;-78
2022/01/01 05:00:55;;;;;;;12.30;7.45;;;12.10;99.90;;;;;;5013472;28;20198;-79
2022/01/01 05:03:21;;;;;;;13.50;7.70;;;12.10;99.90;;;;;;5014841;28;20190;-78
2022/01/01 05:05:47;;;;;;;12.25;7.32;;;12.10;99.90;;;;;;5014217;28;20684;-80
2022/01/01 05:08:12;;;;;;;11.50;7.45;;;12.00;99.90;;;;;;5012722;28;20188;-79
2022/01/01 05:10:38;;;;;;;12.50;7.57;;;12.10;99.90;;;;;;5013955;28;20191;-78
2022/01/01 05:13:03;;;;;;;10.93;7.88;;;12.10;99.90;;;;;;5013160;28;20967;-78
2022/01/01 05:15:29;;;;;;;11.45;7.07;;;12.10;99.90;;;;;;5013984;28;20719;-78
2022/01/01 05:17:55;;;;;;;13.38;7.80;;;12.10;99.90;;;;;;5012728;28;20180;-78
2022/01/01 05:20:21;;;;;;;16.38;7.93;;;12.10;99.90;;;;;;5014812;28;20197;-80
2022/01/01 05:22:46;;;;;;;11.30;7.25;;;12.10;99.90;;;;;;5013537;28;20194;-78
2022/01/01 05:25:12;;;;;;;12.07;7.88;;;12.10;99.90;;;;;;5011868;28;20219;-79
2022/01/01 05:27:38;;;;;;;14.20;7.75;;;12.10;99.90;;;;;;5014142;28;20176;-80
2022/01/01 05:30:05;;;;;;;13.35;7.78;;;12.10;99.90;;;;;;5014743;28;20223;-79
2022/01/01 05:32:31;;;;;;;16.38;9.65;;;12.10;99.90;;;;;;5015207;28;20275;-79
2022/01/01 05:34:56;;;;;;;13.02;7.60;;;12.10;99.90;;;;;;5012060;28;20721;-79
2022/01/01 05:37:22;;;;;;;12.65;7.78;;;12.10;99.90;;;;;;5013363;28;20183;-79
2022/01/01 05:39:47;;;;;;;12.07;7.80;;;12.10;99.90;;;;;;5010321;28;20191;-80
2022/01/01 05:42:13;;;;;;;13.48;7.47;;;12.10;99.90;;;;;;5008077;28;21074;-78
2022/01/01 05:44:38;;;;;;;13.07;7.65;;;12.10;99.90;;;;;;5008653;28;20215;-78
2022/01/01 05:47:05;;;;;;;11.32;7.80;;;12.10;99.90;;;;;;5010666;28;20195;-79
2022/01/01 05:49:30;;;;;;;12.20;7.07;;;12.10;99.90;;;;;;5008151;28;20184;-79
2022/01/01 05:51:56;;;;;;;12.45;7.25;;;12.10;99.90;;;;;;5009921;28;20198;-78
2022/01/01 05:54:21;;;;;;;12.02;8.13;;;12.10;99.90;;;;;;5009164;28;20246;-78
2022/01/01 05:56:47;;;;;;;10.25;7.32;;;12.10;99.90;;;;;;5008465;28;20226;-78
2022/01/01 05:59:14;;;;;;;11.80;7.65;;;12.00;99.90;;;;;;5010201;28;20222;-78
2022/01/01 06:01:39;;;;;;;12.32;7.45;;;12.10;99.90;;;;;;5008322;28;20545;-79
2022/01/01 06:04:05;;;;;;;12.27;7.35;;;12.00;99.90;;;;;;5010246;28;20204;-79
2022/01/01 06:06:30;;;;;;;13.52;7.90;;;12.00;99.90;;;;;;5008476;28;20912;-78
2022/01/01 06:08:56;;;;;;;12.43;7.80;;;12.00;99.90;;;;;;5007330;28;20188;-78
2022/01/01 06:11:21;;;;;;;15.02;8.75;;;12.00;99.90;;;;;;5008130;28;20192;-78
2022/01/01 06:13:47;;;;;;;13.27;8.27;;;12.00;99.90;;;;;;5009301;28;20250;-79
2022/01/01 06:16:12;;;;;;;15.43;8.50;;;11.90;99.90;;;;;;5007775;28;20211;-78
2022/01/01 06:18:38;;;;;;;14.43;8.30;;;12.00;99.90;;;;;;5009342;28;20187;-78
2022/01/01 06:21:04;;;;;;;11.43;7.65;;;12.00;99.90;;;;;;5007569;28;20184;-78
2022/01/01 06:23:29;;;;;;;14.45;8.93;;;12.00;99.90;;;;;;5008506;28;20183;-78
2022/01/01 06:25:55;;;;;;;17.48;9.52;;;12.10;99.90;;;;;;5009615;28;20225;-79
2022/01/01 06:28:20;;;;;;;15.93;9.38;;;12.00;99.90;;;;;;5009141;28;20235;-78
2022/01/01 06:30:46;;;;;;;14.63;9.40;;;12.00;99.90;;;;;;5000056;28;20641;-78
2022/01/01 06:33:17;;;;;;;16.75;10.43;;;12.00;99.90;;;;;;5008452;28;20530;-78
2022/01/01 06:35:45;;;;;;;14.45;9.75;;;11.90;99.90;;;;;;5007972;28;20210;-78
2022/01/01 06:38:11;;;;;;;17.60;11.27;;;11.80;99.90;;;;;;5008814;28;20188;-79
2022/01/01 06:40:41;;;;;;;17.55;10.10;;;11.90;99.90;;;;;;5007372;28;20675;-78
2022/01/01 06:43:13;;;;;;;15.60;10.32;;;11.80;99.90;;;;;;5008546;28;20792;-78
2022/01/01 06:45:39;;;;;;;14.75;10.02;;;11.80;99.90;;;;;;5006911;28;20210;-78
2022/01/01 06:48:05;;;;;;;15.05;10.60;;;11.90;99.90;;;;;;5008637;28;20195;-78
2022/01/01 06:50:32;;;;;;;12.68;9.45;;;11.80;99.90;;;;;;5008064;28;20184;-79
2022/01/01 06:52:57;;;;;;;16.85;10.88;;;11.90;99.90;;;;;;5015766;28;20187;-78
2022/01/01 06:55:23;;;;;;;16.23;10.82;;;11.90;99.90;;;;;;5008261;28;20591;-78
2022/01/01 06:57:49;;;;;;;16.25;11.30;;;11.90;99.90;;;;;;5007094;28;20234;-78
2022/01/01 07:00:15;;;;;;;16.27;11.52;;;12.00;99.90;;;;;;5008395;28;20226;-78
2022/01/01 07:02:43;;;;;;;14.60;10.45;;;12.00;99.90;;;;;;5008129;28;20254;-79
2022/01/01 07:05:09;;;;;;;14.82;10.48;;;12.00;99.90;;;;;;5008155;28;20254;-78
2022/01/01 07:07:35;;;;;;;16.45;11.25;;;12.00;99.90;;;;;;5007373;28;20187;-79
2022/01/01 07:10:02;;;;;;;17.67;10.52;;;12.00;99.90;;;;;;5010001;28;20719;-80
2022/01/01 07:12:28;;;;;;;15.85;10.73;;;12.00;99.90;;;;;;5010456;28;20247;-78
2022/01/01 07:14:57;;;;;;;14.88;11.30;;;12.00;99.90;;;;;;5011133;28;20369;-78
2022/01/01 07:17:22;;;;;;;15.32;11.40;;;11.90;99.90;;;;;;5007071;28;20653;-78
2022/01/01 07:19:48;;;;;;;17.25;11.85;;;11.90;99.90;;;;;;5006891;28;20214;-78
2022/01/01 07:22:13;;;;;;;16.55;11.10;;;11.90;99.90;;;;;;5006938;28;20276;-80
2022/01/01 07:24:39;;;;;;;15.60;11.27;;;11.90;99.90;;;;;;5006124;28;20207;-78
2022/01/01 07:27:05;;;;;;;17.08;10.90;;;11.80;99.90;;;;;;5006373;28;20195;-78
2022/01/01 07:29:31;;;;;;;18.17;11.13;;;11.80;99.90;;;;;;5006442;28;20194;-79
2022/01/01 07:31:56;;;;;;;15.90;11.70;;;11.80;99.90;;;;;;5007533;28;20234;-78
2022/01/01 07:34:22;;;;;;;16.23;11.43;;;11.80;99.90;;;;;;5004237;28;20211;-79
2022/01/01 07:36:48;;;;;;;19.10;11.35;;;11.80;99.90;;;;;;5005720;28;20246;-79
2022/01/01 07:39:14;;;;;;;17.67;12.18;;;11.80;99.90;;;;;;5006060;28;20715;-79
2022/01/01 07:41:40;;;;;;;17.52;11.57;;;11.80;99.90;;;;;;5006552;28;20211;-78
2022/01/01 07:44:06;;;;;;;16.52;12.30;;;11.80;99.90;;;;;;5008025;28;20210;-81
2022/01/01 07:46:32;;;;;;;15.98;11.85;;;11.80;99.90;;;;;;5003178;28;20191;-79
2022/01/01 07:48:58;;;;;;;17.45;12.05;;;11.80;99.90;;;;;;5005967;28;20245;-78
2022/01/01 07:51:24;;;;;;;19.52;12.90;;;11.70;99.90;;;;;;5004554;28;20604;-78
2022/01/01 07:53:50;;;;;;;18.25;12.23;;;11.80;99.90;;;;;;5003199;28;20209;-78
2022/01/01 07:56:15;;;;;;;20.83;12.05;;;11.70;99.90;;;;;;5005286;28;20249;-78
2022/01/01 07:58:41;;;;;;;18.75;12.70;;;11.80;99.90;;;;;;5004565;28;20233;-78
2022/01/01 08:01:07;;;;;;;18.92;12.35;;;11.70;99.90;;;;;;5004879;28;20695;-77
2022/01/01 08:03:32;;;;;;;19.65;12.40;;;11.90;99.90;;;;;;5003768;28;20180;-77
2022/01/01 08:05:58;;;;;;;19.67;12.88;;;11.90;99.90;;;;;;5003432;28;20238;-78
2022/01/01 08:08:23;;;;;;;18.10;12.02;;;11.90;99.90;;;;;;5003982;28;20629;-77
2022/01/01 08:10:49;;;;;;;19.83;12.23;;;11.90;99.90;;;;;;5003439;28;20182;-78
2022/01/01 08:13:23;;;;;;;15.82;11.93;;;11.90;99.90;;;;;;5003523;28;20179;-77
2022/01/01 08:15:50;;;;;;;17.83;12.02;;;11.90;99.90;;;;;;5004812;28;20219;-77
2022/01/01 08:18:16;;;;;;;21.65;13.13;;;12.00;99.90;;;;;;5003786;28;20180;-80
2022/01/01 08:20:42;;;;;;;15.70;10.77;;;11.90;99.90;;;;;;5003251;28;20245;-77
2022/01/01 08:23:08;;;;;;;16.10;11.80;;;12.00;99.90;;;;;;5004774;28;20198;-78
2022/01/01 08:25:34;;;;;;;18.98;11.65;;;12.00;99.90;;;;;;5004188;28;20798;-78
2022/01/01 08:27:59;;;;;;;20.25;12.55;;;11.90;99.90;;;;;;5002259;28;20207;-78
2022/01/01 08:30:25;;;;;;;15.23;11.70;;;12.00;99.90;;;;;;5003840;28;20234;-79
2022/01/01 08:32:51;;;;;;;18.25;12.18;;;12.10;99.90;;;;;;5005149;28;20192;-79
2022/01/01 08:35:16;;;;;;;19.67;12.43;;;12.10;99.90;;;;;;5011025;28;20246;-79
2022/01/01 08:37:42;;;;;;;20.75;11.88;;;12.10;99.90;;;;;;5012921;28;21118;-79
2022/01/01 08:40:09;;;;;;;19.00;11.85;;;12.10;99.90;;;;;;5012005;28;20274;-79
2022/01/01 08:42:35;;;;;;;15.18;11.45;;;12.20;99.90;;;;;;5010225;28;20180;-79
2022/01/01 08:45:00;;;;;;;17.02;12.30;;;12.30;99.90;;;;;;5010904;28;20206;-79
2022/01/01 08:47:26;;;;;;;17.58;11.45;;;12.40;99.90;;;;;;5010973;28;20199;-79
2022/01/01 08:49:55;;;;;;;17.25;12.60;;;12.40;99.90;;;;;;5009835;28;20194;-79
2022/01/01 08:52:22;;;;;;;15.07;11.38;;;12.40;99.90;;;;;;5008576;28;20708;-78
2022/01/01 08:54:49;;;;;;;17.23;11.45;;;12.40;99.90;;;;;;5010055;28;20219;-78
2022/01/01 08:57:15;;;;;;;16.27;11.93;;;12.40;99.90;;;;;;5025170;28;20180;-79
2022/01/01 08:59:41;;;;;;;16.77;11.15;;;12.40;99.90;;;;;;5009612;28;20176;-79
2022/01/01 09:02:07;;;;;;;16.92;11.70;;;12.50;99.90;;;;;;5009792;28;20188;-79
2022/01/01 09:04:32;;;;;;;17.55;11.85;;;12.60;99.90;;;;;;5009838;28;20221;-78
2022/01/01 09:06:58;;;;;;;17.90;11.15;;;12.60;99.90;;;;;;5011556;28;20198;-79
2022/01/01 09:09:23;;;;;;;16.33;11.32;;;12.60;99.90;;;;;;5010550;28;20187;-80
2022/01/01 09:11:49;;;;;;;14.23;11.15;;;12.50;99.90;;;;;;5011448;28;20214;-79
2022/01/01 09:14:15;;;;;;;16.00;10.75;;;12.50;99.90;;;;;;5009985;28;21428;-78
2022/01/01 09:16:40;;;;;;;16.55;11.32;;;12.60;99.90;;;;;;5010934;28;20646;-78
2022/01/01 09:19:06;;;;;;;16.77;10.82;;;12.60;99.90;;;;;;5012645;28;20211;-79
2022/01/01 09:21:32;;;;;;;14.40;10.68;;;12.50;99.90;;;;;;5010920;28;20625;-80
2022/01/01 09:23:58;;;;;;;13.50;10.02;;;12.60;99.90;;;;;;5009079;28;20674;-81
2022/01/01 09:26:24;;;;;;;16.92;10.82;;;12.50;99.90;;;;;;5018579;28;20281;-78
2022/01/01 09:28:50;;;;;;;19.02;11.40;;;12.50;99.90;;;;;;5012992;28;20736;-79
2022/01/01 09:31:15;;;;;;;16.48;10.98;;;12.40;99.90;;;;;;5013371;28;20187;-79
2022/01/01 09:33:41;;;;;;;15.57;10.52;;;12.50;99.90;;;;;;5008538;28;20191;-79
2022/01/01 09:36:09;;;;;;;14.45;10.25;;;12.50;99.90;;;;;;5009599;28;20227;-79
2022/01/01 09:38:35;;;;;;;15.10;10.77;;;12.50;99.90;;;;;;5009776;28;20239;-79
2022/01/01 09:41:02;;;;;;;16.60;11.52;;;12.50;99.90;;;;;;5011944;28;20184;-79
2022/01/01 09:43:30;;;;;;;13.25;9.75;;;12.60;99.90;;;;;;5008662;28;20183;-79
2022/01/01 09:45:57;;;;;;;17.05;11.10;;;12.50;99.90;;;;;;5008833;28;20235;-78
2022/01/01 09:48:24;;;;;;;16.23;9.82;;;12.70;99.90;;;;;;5010172;28;20195;-79
2022/01/01 09:50:54;;;;;;;15.45;10.18;;;12.70;99.90;;;;;;5009941;28;20237;-79
2022/01/01 09:53:22;;;;;;;17.88;10.57;;;12.80;99.90;;;;;;5011146;28;20184;-78
2022/01/01 09:55:48;;;;;;;18.92;9.70;;;12.80;99.90;;;;;;5010276;28;20227;-80
2022/01/01 09:58:13;;;;;;;13.30;9.18;;;12.90;99.90;;;;;;5011566;28;20630;-80
2022/01/01 10:00:39;;;;;;;15.13;9.48;;;12.90;99.90;;;;;;5011492;28;20180;-79
2022/01/01 10:03:04;;;;;;;15.95;9.30;;;12.90;99.90;;;;;;5009195;28;20788;-78
2022/01/01 10:05:30;;;;;;;13.77;8.80;;;12.90;99.90;;;;;;5008325;28;20568;-80
2022/01/01 10:08:00;;;;;;;11.32;7.88;;;12.90;99.90;;;;;;5008130;28;20207;-79
2022/01/01 10:10:26;;;;;;;11.65;8.45;;;13.00;99.90;;;;;;5009395;28;20187;-78
2022/01/01 10:12:52;;;;;;;11.75;9.00;;;13.00;99.90;;;;;;5010676;28;20184;-78
2022/01/01 10:15:18;;;;;;;13.98;8.60;;;13.10;99.90;;;;;;5011708;28;20211;-78
2022/01/01 10:17:46;;;;;;;14.07;8.77;;;13.10;99.90;;;;;;5008083;28;20191;-79
2022/01/01 10:20:12;;;;;;;16.77;8.00;;;13.10;99.90;;;;;;5023919;28;20225;-80
2022/01/01 10:22:38;;;;;;;13.88;8.43;;;13.10;99.90;;;;;;5008414;28;20668;-78
2022/01/01 10:27:58;;;;;;;15.00;8.63;;;13.20;99.90;;;;;;5008522;28;20190;-79
2022/01/01 10:30:36;;;;;;;12.05;8.88;;;13.20;99.90;;;;;;4998611;28;20247;-80
2022/01/01 10:33:12;;;;;;;16.55;8.45;;;13.30;99.90;;;;;;5004434;28;20218;-79
2022/01/01 10:35:41;;;;;;;11.60;8.85;;;13.20;99.90;;;;;;5006811;28;20221;-78
2022/01/01 10:38:10;;;;;;;17.25;8.95;;;13.20;99.90;;;;;;5014437;28;20207;-78
2022/01/01 10:40:35;;;;;;;14.23;9.05;;;13.30;99.90;;;;;;4998629;28;20918;-78
2022/01/01 10:43:01;;;;;;;12.32;8.02;;;13.30;99.90;;;;;;5004458;28;20190;-78
2022/01/01 10:45:48;;;;;;;15.50;8.18;;;13.40;99.90;;;;;;5006757;28;20265;-79
2022/01/01 10:48:31;;;;;;;12.25;7.93;;;13.40;99.90;;;;;;5005570;28;20184;-81
2022/01/01 10:50:59;;;;;;;12.98;7.72;;;13.40;99.90;;;;;;5006138;28;20194;-79
2022/01/01 10:53:26;;;;;;;11.68;7.82;;;13.50;99.90;;;;;;5006318;28;20237;-80
2022/01/01 10:55:56;;;;;;;12.35;7.85;;;13.50;99.90;;;;;;5005757;28;20233;-80
2022/01/01 10:58:27;;;;;;;10.68;7.70;;;13.50;99.90;;;;;;5023626;28;20203;-80
2022/01/01 11:01:00;;;;;;;15.07;7.75;;;13.50;99.90;;;;;;5008876;28;20680;-79
2022/01/01 11:03:25;;;;;;;12.10;6.80;;;13.50;99.90;;;;;;5008719;28;20191;-79
2022/01/01 11:06:06;;;;;;;15.07;7.75;;;13.50;99.90;;;;;;5008477;28;20226;-79
2022/01/01 11:08:33;;;;;;;11.10;7.82;;;13.60;99.90;;;;;;5010911;28;20262;-79
2022/01/01 11:10:59;;;;;;;11.55;6.97;;;13.60;99.90;;;;;;5006856;28;20210;-78
2022/01/01 11:13:25;;;;;;;11.00;6.20;;;13.70;99.90;;;;;;5009767;28;20191;-79
2022/01/01 11:15:54;;;;;;;12.25;7.07;;;13.80;99.90;;;;;;5007716;28;20218;-79
2022/01/01 11:18:22;;;;;;;10.50;6.25;;;13.90;99.90;;;;;;5008151;28;20176;-79
2022/01/01 11:20:49;;;;;;;11.85;6.32;;;13.90;99.90;;;;;;5009787;28;20183;-78
2022/01/01 11:23:14;;;;;;;8.02;5.65;;;13.90;99.90;;;;;;5010412;28;20204;-79
2022/01/01 11:25:41;;;;;;;9.73;5.68;;;13.80;99.90;;;;;;5006579;28;20254;-79
2022/01/01 11:28:15;;;;;;;8.00;5.32;;;13.80;99.90;;;;;;5007627;28;20187;-79
2022/01/01 11:30:51;;;;;;;7.35;5.43;;;13.70;99.90;;;;;;5023403;28;20699;-80
2022/01/01 11:33:22;;;;;;;10.00;5.25;;;13.70;99.90;;;;;;5008818;28;20187;-80
2022/01/01 11:35:54;;;;;;;6.88;5.00;;;13.80;99.90;;;;;;5022783;28;20211;-80
2022/01/01 11:38:20;;;;;;;8.77;4.82;;;13.90;99.90;;;;;;5006017;28;20179;-84
2022/01/01 11:41:18;;;;;;;9.52;4.68;;;13.90;99.90;;;;;;5006615;28;20183;-81
2022/01/01 11:43:55;;;;;;;10.10;5.00;;;13.90;99.90;;;;;;4984518;28;20227;-83
2022/01/01 11:46:27;;;;;;;8.68;4.82;;;13.90;99.90;;;;;;5006565;28;20621;-84
2022/01/01 11:48:55;;;;;;;8.98;5.10;;;13.90;99.90;;;;;;5016374;28;20179;-82
2022/01/01 11:51:25;;;;;;;11.00;4.90;;;13.90;99.90;;;;;;5005623;28;20183;-82
2022/01/01 11:54:09;;;;;;;8.13;4.47;;;14.00;99.90;;;;;;5014803;28;20195;-81
2022/01/01 11:56:50;;;;;;;9.68;3.88;;;14.00;99.90;;;;;;5006464;28;20191;-81
2022/01/01 11:59:20;;;;;;;9.32;4.53;;;14.10;99.90;;;;;;5005719;28;20274;-82
2022/01/01 12:01:46;;;;;;;10.90;6.70;;;14.00;99.90;;;;;;5007993;28;20237;-80
2022/01/01 12:04:35;;;;;;;7.97;5.30;;;14.10;99.90;;;;;;5009857;28;20179;-80
2022/01/01 12:07:11;;;;;;;9.30;4.53;;;14.10;99.90;;;;;;5000268;28;20653;-81
2022/01/01 12:10:01;;;;;;;8.07;5.25;;;14.00;99.90;;;;;;5012343;28;20244;-81
2022/01/01 12:12:37;;;;;;;6.70;4.10;;;13.90;99.90;;;;;;5012244;28;20189;-77
2022/01/01 12:15:06;;;;;;;6.13;3.80;;;13.90;99.90;;;;;;5012292;28;20249;-79
2022/01/01 12:18:05;;;;;;;7.75;3.38;;;13.80;99.90;;;;;;5002419;28;20230;-78
2022/01/01 12:20:47;;;;;;;9.35;4.50;;;13.90;99.90;;;;;;4967086;28;20191;-79
2022/01/01 12:23:15;;;;;;;6.07;3.60;;;13.80;99.90;;;;;;5012346;28;20221;-79
2022/01/01 12:25:42;;;;;;;6.50;3.78;;;13.90;99.90;;;;;;5011914;28;20219;-83
2022/01/01 12:28:21;;;;;;;7.95;3.95;;;14.00;99.90;;;;;;5013851;28;20184;-79
2022/01/01 12:30:54;;;;;;;7.00;3.90;;;14.00;99.90;;;;;;5010223;28;20187;-80
2022/01/01 12:33:27;;;;;;;5.55;3.78;;;14.00;99.90;;;;;;5017840;28;20202;-82
2022/01/01 12:35:57;;;;;;;7.78;4.03;;;13.90;99.90;;;;;;5010191;28;20207;-80
2022/01/01 12:38:29;;;;;;;5.50;3.40;;;13.90;99.90;;;;;;5002235;28;20189;-86
2022/01/01 12:41:03;;;;;;;5.28;3.50;;;14.00;99.90;;;;;;5001697;28;20183;-80